BHM weather

Birmingham-Shuttlesworth International Airport
Birmingham, Alabama, United States

Public forecast

Using degrees Fahrenheit for public forecast. Weather courtesy of forecast.io.

METAR (pilot weather report)

Retrieved 2017/10/21 11:53 UTC (1 hour ago):

KBHM 211153Z 03004KT 10SM SCT250 15/09 A3023 RMK AO2 SLP234 T01500094 10172 20128 53016

TAF (pilot weather forecast)

Retrieved 2017/10/21 12:22 UTC (31 minutes ago):

TAF KBHM 211120Z 2112/2212 12009KT P6SM BKN200 FM220000 12005KT P6SM SCT150 FM220700 13010KT P6SM SCT050 BKN150